createdAt,value
2022-10-17T00:01:04.810Z,5.50
2022-10-17T00:03:33.455Z,6.35
2022-10-17T00:06:08.816Z,6.10
2022-10-17T00:08:37.467Z,5.57
2022-10-17T00:11:12.338Z,6.22
2022-10-17T00:13:40.039Z,5.72
2022-10-17T00:16:07.868Z,6.50
2022-10-17T00:18:35.264Z,5.47
2022-10-17T00:21:03.095Z,6.68
2022-10-17T00:23:30.676Z,6.05
2022-10-17T00:26:03.047Z,6.43
2022-10-17T00:28:32.114Z,6.78
2022-10-17T00:31:02.442Z,6.43
2022-10-17T00:33:31.054Z,6.18
2022-10-17T00:36:06.736Z,6.40
2022-10-17T00:38:36.741Z,5.85
2022-10-17T00:41:04.660Z,6.60
2022-10-17T00:43:50.408Z,6.47
2022-10-17T00:46:18.291Z,6.50
2022-10-17T00:48:46.291Z,6.03
2022-10-17T00:51:14.711Z,6.62
2022-10-17T00:53:42.611Z,6.60
2022-10-17T00:56:10.806Z,6.43
2022-10-17T00:58:38.234Z,6.65
2022-10-17T01:01:05.960Z,6.90
2022-10-17T01:03:33.403Z,6.28
2022-10-17T01:06:00.815Z,7.07
2022-10-17T01:08:28.696Z,6.83
2022-10-17T01:11:08.284Z,6.15
2022-10-17T01:13:46.789Z,5.85
2022-10-17T01:16:23.679Z,6.35
2022-10-17T01:19:16.793Z,6.50
2022-10-17T01:21:54.536Z,6.00
2022-10-17T01:24:37.896Z,5.97
2022-10-17T01:27:23.819Z,5.97
2022-10-17T01:30:26.114Z,5.95
2022-10-17T01:33:04.677Z,6.50
2022-10-17T01:35:40.546Z,6.43
2022-10-17T01:38:16.377Z,6.35
2022-10-17T01:41:02.861Z,6.72
2022-10-17T01:43:47.240Z,6.70
2022-10-17T01:46:41.400Z,6.85
2022-10-17T01:49:13.185Z,6.10
2022-10-17T01:51:47.674Z,5.90
2022-10-17T01:54:21.534Z,6.53
2022-10-17T01:56:53.422Z,6.95
2022-10-17T01:59:25.584Z,7.20
2022-10-17T02:01:56.083Z,6.10
2022-10-17T02:04:25.215Z,6.03
2022-10-17T02:06:52.643Z,6.68
2022-10-17T02:09:25.595Z,6.00
2022-10-17T02:12:15.181Z,6.70
2022-10-17T02:15:11.097Z,6.57
2022-10-17T02:17:50.597Z,6.60
2022-10-17T02:20:33.272Z,7.93
2022-10-17T02:23:00.990Z,6.65
2022-10-17T02:25:55.028Z,6.75
2022-10-17T02:28:44.226Z,6.20
2022-10-17T02:31:23.850Z,6.28
2022-10-17T02:33:58.030Z,6.87
2022-10-17T02:36:41.179Z,6.65
2022-10-17T02:39:10.451Z,6.47
2022-10-17T02:41:40.300Z,6.33
2022-10-17T02:44:08.789Z,5.65
2022-10-17T02:46:38.621Z,6.80
2022-10-17T02:49:10.668Z,6.95
2022-10-17T02:51:50.848Z,6.95
2022-10-17T02:54:30.364Z,7.53
2022-10-17T02:57:46.576Z,7.32
2022-10-17T03:00:16.708Z,6.75
2022-10-17T03:02:50.243Z,6.85
2022-10-17T03:05:21.351Z,6.55
2022-10-17T03:07:49.063Z,6.53
2022-10-17T03:10:17.107Z,7.00
2022-10-17T03:12:45.166Z,7.28
2022-10-17T03:15:13.572Z,7.35
2022-10-17T03:17:41.147Z,7.15
2022-10-17T03:20:09.792Z,6.43
2022-10-17T03:22:37.231Z,7.07
2022-10-17T03:25:05.106Z,7.47
2022-10-17T03:27:35.368Z,7.15
2022-10-17T03:30:03.284Z,6.43
2022-10-17T03:32:33.721Z,6.90
2022-10-17T03:35:02.293Z,7.03
2022-10-17T03:37:30.160Z,7.57
2022-10-17T03:39:57.779Z,6.32
2022-10-17T03:42:25.804Z,7.95
2022-10-17T03:44:53.192Z,7.40
2022-10-17T03:47:20.994Z,6.75
2022-10-17T03:49:49.673Z,7.20
2022-10-17T03:52:17.875Z,6.75
2022-10-17T03:54:45.660Z,7.90
2022-10-17T03:57:13.398Z,7.67
2022-10-17T03:59:40.798Z,7.57
2022-10-17T04:02:08.473Z,8.00
2022-10-17T04:04:36.527Z,7.60
2022-10-17T04:07:04.015Z,7.22
2022-10-17T04:09:31.442Z,8.57
2022-10-17T04:12:00.350Z,7.68
2022-10-17T04:14:27.856Z,8.02
2022-10-17T04:16:55.405Z,8.07
2022-10-17T04:19:23.156Z,8.93
2022-10-17T04:21:50.698Z,8.17
2022-10-17T04:24:18.228Z,7.85
2022-10-17T04:26:46.109Z,7.78
2022-10-17T04:29:13.808Z,8.00
2022-10-17T04:31:41.806Z,7.40
2022-10-17T04:34:11.008Z,8.03
2022-10-17T04:36:38.402Z,7.90
2022-10-17T04:39:06.037Z,7.70
2022-10-17T04:41:34.021Z,7.20
2022-10-17T04:44:02.645Z,7.18
2022-10-17T04:46:33.625Z,6.77
2022-10-17T04:49:01.396Z,7.60
2022-10-17T04:51:29.342Z,7.30
2022-10-17T04:53:58.160Z,7.25
2022-10-17T04:56:26.156Z,7.05
2022-10-17T04:58:53.827Z,6.70
2022-10-17T05:01:23.752Z,7.10
2022-10-17T05:03:52.257Z,7.50
2022-10-17T05:06:23.086Z,6.90
2022-10-17T05:08:53.325Z,7.93
2022-10-17T05:11:29.044Z,6.73
2022-10-17T05:13:59.932Z,6.30
2022-10-17T05:16:28.739Z,7.82
2022-10-17T05:18:58.328Z,7.93
2022-10-17T05:21:29.529Z,8.40
2022-10-17T05:23:57.919Z,6.43
2022-10-17T05:26:26.471Z,7.25
2022-10-17T05:28:54.835Z,7.10
2022-10-17T05:31:22.736Z,6.68
2022-10-17T05:33:50.176Z,7.07
2022-10-17T05:36:18.611Z,7.20
2022-10-17T05:38:51.238Z,6.97
2022-10-17T05:41:20.498Z,7.32
2022-10-17T05:43:48.319Z,7.35
2022-10-17T05:46:16.605Z,7.30
2022-10-17T05:48:44.608Z,7.13
2022-10-17T05:51:12.402Z,7.18
2022-10-17T05:53:42.187Z,7.20
2022-10-17T05:56:12.524Z,7.47
2022-10-17T05:58:50.853Z,7.15
2022-10-17T06:01:21.044Z,6.83
2022-10-17T06:03:48.833Z,6.55
2022-10-17T06:06:17.546Z,7.57
2022-10-17T06:08:46.298Z,7.12
2022-10-17T06:11:14.548Z,6.95
2022-10-17T06:13:42.238Z,7.23
2022-10-17T06:16:10.387Z,7.70
2022-10-17T06:18:39.201Z,7.95
2022-10-17T06:21:11.799Z,7.15
2022-10-17T06:23:40.071Z,6.72
2022-10-17T06:26:07.763Z,7.27
2022-10-17T06:28:36.099Z,6.65
2022-10-17T06:31:06.325Z,6.82
2022-10-17T06:33:34.200Z,6.50
2022-10-17T06:36:03.025Z,6.32
2022-10-17T06:38:31.748Z,6.70
2022-10-17T06:41:08.856Z,6.43
2022-10-17T06:43:41.053Z,7.57
2022-10-17T06:46:16.403Z,6.72
2022-10-17T06:48:46.532Z,7.57
2022-10-17T06:51:14.090Z,7.37
2022-10-17T06:53:42.754Z,7.10
2022-10-17T06:56:11.047Z,7.32
2022-10-17T06:58:40.311Z,6.72
2022-10-17T07:01:13.604Z,7.28
2022-10-17T07:03:41.708Z,7.23
2022-10-17T07:06:11.024Z,7.95
2022-10-17T07:08:44.051Z,7.40
2022-10-17T07:11:15.127Z,7.43
2022-10-17T07:13:43.212Z,8.00
2022-10-17T07:16:11.675Z,7.67
2022-10-17T07:18:40.367Z,8.02
2022-10-17T07:21:08.840Z,7.03
2022-10-17T07:23:37.784Z,7.68
2022-10-17T07:26:13.931Z,8.48
2022-10-17T07:28:44.128Z,7.87
2022-10-17T07:31:16.992Z,7.80
2022-10-17T07:36:18.792Z,7.57
2022-10-17T07:38:46.882Z,7.28
2022-10-17T07:41:17.926Z,7.23
2022-10-17T07:43:49.248Z,6.93
2022-10-17T07:46:17.240Z,7.80
2022-10-17T07:48:45.212Z,7.62
2022-10-17T07:51:13.035Z,7.65
2022-10-17T07:53:42.758Z,7.03
2022-10-17T07:56:13.122Z,6.95
2022-10-17T07:58:40.537Z,7.35
2022-10-17T08:01:14.741Z,6.75
2022-10-17T08:03:48.665Z,9.07
2022-10-17T08:06:16.152Z,8.00
2022-10-17T08:08:43.940Z,7.20
2022-10-17T08:11:13.229Z,8.10
2022-10-17T08:13:41.309Z,7.22
2022-10-17T08:16:12.069Z,7.30
2022-10-17T08:18:41.094Z,7.20
2022-10-17T08:21:09.843Z,7.97
2022-10-17T08:23:37.719Z,7.03
2022-10-17T08:26:10.514Z,7.45
2022-10-17T08:28:40.306Z,7.37
2022-10-17T08:31:11.330Z,7.23
2022-10-17T08:33:39.750Z,7.15
2022-10-17T08:36:09.104Z,7.45
2022-10-17T08:38:41.438Z,7.10
2022-10-17T08:41:29.963Z,7.35
2022-10-17T08:44:12.010Z,6.67
2022-10-17T08:46:42.391Z,6.90
2022-10-17T08:49:16.586Z,7.22
2022-10-17T08:51:51.591Z,7.90
2022-10-17T08:54:25.492Z,8.30
2022-10-17T08:56:55.394Z,7.80
2022-10-17T08:59:28.576Z,7.45
2022-10-17T09:02:14.042Z,7.00
2022-10-17T09:05:23.892Z,7.03
2022-10-17T09:08:31.972Z,7.60
2022-10-17T09:11:24.044Z,7.77
2022-10-17T09:14:08.027Z,8.52
2022-10-17T09:16:53.436Z,8.10
2022-10-17T09:19:25.963Z,8.40
2022-10-17T09:22:02.026Z,8.80
2022-10-17T09:24:41.039Z,8.20
2022-10-17T09:27:25.885Z,9.35
2022-10-17T09:30:21.380Z,9.00
2022-10-17T09:32:58.168Z,7.05
2022-10-17T09:35:29.055Z,7.18
2022-10-17T09:37:56.543Z,7.87
2022-10-17T09:40:33.816Z,7.68
2022-10-17T09:43:05.230Z,7.07
2022-10-17T09:45:37.831Z,7.30
2022-10-17T09:48:18.641Z,8.52
2022-10-17T09:50:53.882Z,7.57
2022-10-17T09:53:38.405Z,8.05
2022-10-17T09:56:12.987Z,7.40
2022-10-17T09:58:47.878Z,6.12
2022-10-17T10:01:24.021Z,6.62
2022-10-17T10:04:09.319Z,7.50
2022-10-17T10:06:37.337Z,6.60
2022-10-17T10:09:07.034Z,6.60
2022-10-17T10:11:51.283Z,6.87
2022-10-17T10:14:34.129Z,6.80
2022-10-17T10:17:03.825Z,6.60
2022-10-17T10:19:37.303Z,7.05
2022-10-17T10:22:14.770Z,6.50
2022-10-17T10:24:42.530Z,6.50
2022-10-17T10:27:18.101Z,6.43
2022-10-17T10:29:51.378Z,5.90
2022-10-17T10:32:30.007Z,5.78
2022-10-17T10:35:16.126Z,5.75
2022-10-17T10:37:46.438Z,6.65
2022-10-17T10:40:29.451Z,7.25
2022-10-17T10:43:04.188Z,5.80
2022-10-17T10:45:47.461Z,5.93
2022-10-17T10:48:18.704Z,6.10
2022-10-17T10:50:49.387Z,5.90
2022-10-17T10:53:26.063Z,5.70
2022-10-17T10:56:19.310Z,5.03
2022-10-17T10:58:54.401Z,5.65
2022-10-17T11:01:28.110Z,5.28
2022-10-17T11:04:26.513Z,5.05
2022-10-17T11:07:02.194Z,4.03
2022-10-17T11:09:55.192Z,4.80
2022-10-17T11:12:28.126Z,4.07
2022-10-17T11:15:10.048Z,4.12
2022-10-17T11:17:57.843Z,4.12
2022-10-17T11:20:36.876Z,4.03
2022-10-17T11:23:36.116Z,4.10
2022-10-17T11:26:09.135Z,4.70
2022-10-17T11:28:37.482Z,3.53
2022-10-17T11:31:18.440Z,6.18
2022-10-17T11:33:54.460Z,4.07
2022-10-17T11:36:28.293Z,3.67
2022-10-17T11:39:02.479Z,4.82
2022-10-17T11:41:41.979Z,4.57
2022-10-17T11:44:18.579Z,4.30
2022-10-17T11:46:51.751Z,4.30
2022-10-17T11:49:24.989Z,6.70
2022-10-17T11:52:03.393Z,4.50
2022-10-17T11:54:31.243Z,4.90
2022-10-17T11:57:07.135Z,4.45
2022-10-17T12:00:03.232Z,3.60
2022-10-17T12:02:37.792Z,4.03
2022-10-17T12:05:34.573Z,4.15
2022-10-17T12:08:14.006Z,4.20
2022-10-17T12:11:14.955Z,3.65
2022-10-17T12:13:51.983Z,4.57
2022-10-17T12:16:23.398Z,5.40
2022-10-17T12:19:10.684Z,4.50
2022-10-17T12:21:58.626Z,4.18
2022-10-17T12:24:36.128Z,3.92
2022-10-17T12:27:32.036Z,4.32
2022-10-17T12:30:07.532Z,4.23
2022-10-17T12:32:53.385Z,5.20
2022-10-17T12:35:25.391Z,4.10
2022-10-17T12:37:56.216Z,6.32
2022-10-17T12:40:34.927Z,4.82
2022-10-17T12:43:23.522Z,3.87
2022-10-17T12:45:52.188Z,5.87
2022-10-17T12:48:38.188Z,3.60
2022-10-17T12:51:35.175Z,3.60
2022-10-17T12:54:12.843Z,3.90
2022-10-17T12:56:44.336Z,3.70
2022-10-17T12:59:17.729Z,3.37
2022-10-17T13:01:48.031Z,3.92
2022-10-17T13:04:16.385Z,4.05
2022-10-17T13:06:53.404Z,4.40
2022-10-17T13:09:35.407Z,3.97
2022-10-17T13:12:06.499Z,3.70
2022-10-17T13:14:34.932Z,3.65
2022-10-17T13:17:07.556Z,3.70
2022-10-17T13:19:44.374Z,3.47
2022-10-17T13:22:17.356Z,5.83
2022-10-17T13:24:45.600Z,5.03
2022-10-17T13:27:31.415Z,4.20
2022-10-17T13:30:02.146Z,3.67
2022-10-17T13:32:39.696Z,4.25
2022-10-17T13:35:17.249Z,3.37
2022-10-17T13:37:51.537Z,3.55
2022-10-17T13:40:44.599Z,3.35
2022-10-17T13:43:19.457Z,3.20
2022-10-17T13:45:53.371Z,7.20
2022-10-17T13:48:24.838Z,6.67
2022-10-17T13:50:59.120Z,4.28
2022-10-17T13:53:42.503Z,3.10
2022-10-17T13:56:27.736Z,3.15
2022-10-17T13:58:59.232Z,3.65
2022-10-17T14:01:29.130Z,3.50
2022-10-17T14:04:08.326Z,2.87
2022-10-17T14:06:47.684Z,3.17
2022-10-17T14:09:24.575Z,3.83
2022-10-17T14:12:11.141Z,3.60
2022-10-17T14:15:05.212Z,3.07
2022-10-17T14:17:30.138Z,2.97
2022-10-17T14:20:34.379Z,7.20
2022-10-17T14:23:17.621Z,4.90
2022-10-17T14:25:41.218Z,3.05
2022-10-17T14:28:14.895Z,4.00
2022-10-17T14:31:02.947Z,4.30
2022-10-17T14:33:31.948Z,3.20
2022-10-17T14:36:02.591Z,2.95
2022-10-17T14:38:30.788Z,3.50
2022-10-17T14:44:07.079Z,4.62
2022-10-17T14:46:36.235Z,4.25
2022-10-17T14:49:19.436Z,3.80
2022-10-17T14:52:18.215Z,3.65
2022-10-17T14:54:50.691Z,3.70
2022-10-17T14:57:33.415Z,3.50
2022-10-17T15:00:01.257Z,3.65
2022-10-17T15:02:30.762Z,3.33
2022-10-17T15:04:58.551Z,3.42
2022-10-17T15:07:26.291Z,3.30
2022-10-17T15:09:54.137Z,3.20
2022-10-17T15:12:24.818Z,3.20
2022-10-17T15:14:53.498Z,3.20
2022-10-17T15:17:31.506Z,3.20
2022-10-17T15:19:59.258Z,3.00
2022-10-17T15:22:26.886Z,3.15
2022-10-17T15:24:54.394Z,3.33
2022-10-17T15:27:24.986Z,3.60
2022-10-17T15:29:53.168Z,4.15
2022-10-17T15:32:20.619Z,3.67
2022-10-17T15:34:48.477Z,3.67
2022-10-17T15:37:22.844Z,3.72
2022-10-17T15:39:54.337Z,4.60
2022-10-17T15:42:26.643Z,4.07
2022-10-17T15:44:54.897Z,4.27
2022-10-17T15:47:27.334Z,4.00
2022-10-17T15:49:55.863Z,4.43
2022-10-17T15:52:23.755Z,5.12
2022-10-17T15:54:51.822Z,4.12
2022-10-17T15:57:23.279Z,3.97
2022-10-17T15:59:51.895Z,4.37
2022-10-17T16:02:21.382Z,4.60
2022-10-17T16:04:50.460Z,3.92
2022-10-17T16:07:20.887Z,4.53
2022-10-17T16:09:48.706Z,4.13
2022-10-17T16:12:29.128Z,4.50
2022-10-17T16:14:57.365Z,3.87
2022-10-17T16:17:24.836Z,3.50
2022-10-17T16:19:52.239Z,4.62
2022-10-17T16:22:32.670Z,3.63
2022-10-17T16:25:07.809Z,3.97
2022-10-17T16:27:37.376Z,4.00
2022-10-17T16:30:07.273Z,3.80
2022-10-17T16:32:34.977Z,4.07
2022-10-17T16:35:02.492Z,3.77
2022-10-17T16:37:29.968Z,4.10
2022-10-17T16:39:57.732Z,4.28
2022-10-17T16:42:25.125Z,4.10
2022-10-17T16:44:52.524Z,4.40
2022-10-17T16:47:20.244Z,4.27
2022-10-17T16:49:47.652Z,4.82
2022-10-17T16:52:15.142Z,4.28
2022-10-17T16:54:42.802Z,4.15
2022-10-17T16:57:10.286Z,4.28
2022-10-17T16:59:37.722Z,4.67
2022-10-17T17:02:05.427Z,4.07
2022-10-17T17:04:32.873Z,4.90
2022-10-17T17:07:00.487Z,5.28
2022-10-17T17:09:28.248Z,4.03
2022-10-17T17:11:55.623Z,3.57
2022-10-17T17:14:23.046Z,3.58
2022-10-17T17:16:50.743Z,3.00
2022-10-17T17:19:18.167Z,2.67
2022-10-17T17:21:50.187Z,3.37
2022-10-17T17:24:21.158Z,3.20
2022-10-17T17:26:54.114Z,3.17
2022-10-17T17:29:23.121Z,3.53
2022-10-17T17:31:50.703Z,2.45
2022-10-17T17:34:18.468Z,3.28
2022-10-17T17:36:49.196Z,2.77
2022-10-17T17:39:17.131Z,2.87
2022-10-17T17:41:45.739Z,2.80
2022-10-17T17:44:16.672Z,2.60
2022-10-17T17:46:45.321Z,3.15
2022-10-17T17:49:13.169Z,2.90
2022-10-17T17:51:41.908Z,3.28
2022-10-17T17:54:11.627Z,2.75
2022-10-17T17:56:39.899Z,2.95
2022-10-17T17:59:07.323Z,3.67
2022-10-17T18:01:39.108Z,3.73
2022-10-17T18:04:08.987Z,4.15
2022-10-17T18:06:37.694Z,3.00
2022-10-17T18:09:06.962Z,2.95
2022-10-17T18:11:35.554Z,3.42
2022-10-17T18:14:05.953Z,3.77
2022-10-17T18:16:35.322Z,3.25
2022-10-17T18:19:09.077Z,3.55
2022-10-17T18:21:37.210Z,3.28
2022-10-17T18:24:05.320Z,3.47
2022-10-17T18:26:33.290Z,3.77
2022-10-17T18:29:00.950Z,3.30
2022-10-17T18:31:32.040Z,3.45
2022-10-17T18:34:03.100Z,3.20
2022-10-17T18:36:32.140Z,3.25
2022-10-17T18:39:00.884Z,3.07
2022-10-17T18:41:28.910Z,2.97
2022-10-17T18:43:57.545Z,3.20
2022-10-17T18:46:36.002Z,3.50
2022-10-17T18:49:03.851Z,3.20
2022-10-17T18:51:31.551Z,3.30
2022-10-17T18:53:59.016Z,3.17
2022-10-17T18:56:26.970Z,2.83
2022-10-17T18:58:55.282Z,2.87
2022-10-17T19:01:25.935Z,3.15
2022-10-17T19:03:55.970Z,3.30
2022-10-17T19:06:31.776Z,2.80
2022-10-17T19:09:01.077Z,3.45
2022-10-17T19:11:30.610Z,3.20
2022-10-17T19:14:01.672Z,3.62
2022-10-17T19:16:34.971Z,3.33
2022-10-17T19:19:10.852Z,3.17
2022-10-17T19:21:39.521Z,3.42
2022-10-17T19:24:10.744Z,3.37
2022-10-17T19:26:39.842Z,3.67
2022-10-17T19:29:07.484Z,4.00
2022-10-17T19:31:36.053Z,2.90
2022-10-17T19:34:04.432Z,3.67
2022-10-17T19:36:34.363Z,3.58
2022-10-17T19:39:07.096Z,3.70
2022-10-17T19:41:36.402Z,2.80
2022-10-17T19:44:03.927Z,2.95
2022-10-17T19:46:32.177Z,3.67
2022-10-17T19:49:00.036Z,3.58
2022-10-17T19:51:29.087Z,3.78
2022-10-17T19:54:00.408Z,3.40
2022-10-17T19:56:31.562Z,3.30
2022-10-17T19:58:59.298Z,2.97
2022-10-17T20:01:30.669Z,3.28
2022-10-17T20:03:58.459Z,2.80
2022-10-17T20:06:26.171Z,3.27
2022-10-17T20:08:54.108Z,3.40
2022-10-17T20:11:24.459Z,3.40
2022-10-17T20:13:53.015Z,3.50
2022-10-17T20:16:23.709Z,3.67
2022-10-17T20:18:54.584Z,3.33
2022-10-17T20:21:27.332Z,3.85
2022-10-17T20:23:55.500Z,3.90
2022-10-17T20:26:36.565Z,3.60
2022-10-17T20:29:11.241Z,3.25
2022-10-17T20:31:40.631Z,3.97
2022-10-17T20:34:11.960Z,3.65
2022-10-17T20:36:39.659Z,3.90
2022-10-17T20:39:07.509Z,3.40
2022-10-17T20:41:35.364Z,3.85
2022-10-17T20:44:03.135Z,3.37
2022-10-17T20:46:36.952Z,4.00
2022-10-17T20:49:09.872Z,3.60
2022-10-17T20:51:37.372Z,3.50
2022-10-17T20:54:05.169Z,3.90
2022-10-17T20:56:34.497Z,3.90
2022-10-17T20:59:07.942Z,4.00
2022-10-17T21:01:36.165Z,3.65
2022-10-17T21:06:53.501Z,4.32
2022-10-17T21:09:21.823Z,4.30
2022-10-17T21:11:52.545Z,3.75
2022-10-17T21:14:21.019Z,4.00
2022-10-17T21:16:48.895Z,3.92
2022-10-17T21:19:16.691Z,4.43
2022-10-17T21:21:46.680Z,4.03
2022-10-17T21:24:18.047Z,3.75
2022-10-17T21:26:47.410Z,4.05
2022-10-17T21:29:15.280Z,4.30
2022-10-17T21:31:44.806Z,4.10
2022-10-17T21:34:24.614Z,4.03
2022-10-17T21:36:52.936Z,4.12
2022-10-17T21:39:21.914Z,4.47
2022-10-17T21:41:49.366Z,3.50
2022-10-17T21:44:22.709Z,4.15
2022-10-17T21:46:51.409Z,4.43
2022-10-17T21:49:21.376Z,4.35
2022-10-17T21:51:49.793Z,5.20
2022-10-17T21:54:19.600Z,4.22
2022-10-17T21:56:47.183Z,4.80
2022-10-17T21:59:14.570Z,4.67
2022-10-17T22:01:44.939Z,4.35
2022-10-17T22:04:15.487Z,4.70
2022-10-17T22:06:44.651Z,4.37
2022-10-17T22:09:23.820Z,4.25
2022-10-17T22:11:54.947Z,4.30
2022-10-17T22:14:25.031Z,5.12
2022-10-17T22:16:53.223Z,4.35
2022-10-17T22:19:26.017Z,4.07
2022-10-17T22:21:54.756Z,5.68
2022-10-17T22:24:22.333Z,4.67
2022-10-17T22:26:50.324Z,4.50
2022-10-17T22:29:18.113Z,4.20
2022-10-17T22:31:45.885Z,4.55
2022-10-17T22:34:14.746Z,4.72
2022-10-17T22:36:42.901Z,4.63
2022-10-17T22:39:11.303Z,4.60
2022-10-17T22:41:38.819Z,4.75
2022-10-17T22:44:06.773Z,4.93
2022-10-17T22:46:34.623Z,4.55
2022-10-17T22:49:02.268Z,4.53
2022-10-17T22:51:29.957Z,4.90
2022-10-17T22:53:57.432Z,4.55
2022-10-17T22:56:24.913Z,5.37
2022-10-17T22:58:52.708Z,5.00
2022-10-17T23:01:22.946Z,4.60
2022-10-17T23:03:51.636Z,4.62
2022-10-17T23:06:20.216Z,4.78
2022-10-17T23:08:47.990Z,5.20
2022-10-17T23:11:15.691Z,4.95
2022-10-17T23:13:43.351Z,5.07
2022-10-17T23:16:10.741Z,4.97
2022-10-17T23:18:38.947Z,5.07
2022-10-17T23:21:07.111Z,5.70
2022-10-17T23:23:34.575Z,5.22
2022-10-17T23:26:09.789Z,4.93
2022-10-17T23:28:38.571Z,5.32
2022-10-17T23:31:13.051Z,5.62
2022-10-17T23:33:41.516Z,4.93
2022-10-17T23:36:11.064Z,5.75
2022-10-17T23:38:40.038Z,5.87
2022-10-17T23:41:08.709Z,5.68
2022-10-17T23:43:36.386Z,6.05
2022-10-17T23:46:05.836Z,6.07
2022-10-17T23:48:33.995Z,5.62
2022-10-17T23:51:01.607Z,5.80
2022-10-17T23:53:29.012Z,5.47
2022-10-17T23:55:56.695Z,5.55
2022-10-17T23:58:24.374Z,5.43
